sensor_id;sensor_type;location;lat;lon;timestamp;pressure;altitude;pressure_sealevel;temperature;humidity
3428;BME280;1727;42.624;23.406;2023-09-08T00:01:14;95395.63;;;21.55;83.60
3428;BME280;1727;42.624;23.406;2023-09-08T00:03:42;95385.69;;;21.63;82.58
3428;BME280;1727;42.624;23.406;2023-09-08T00:06:09;95389.81;;;21.66;77.69
3428;BME280;1727;42.624;23.406;2023-09-08T00:08:36;95383.56;;;21.74;77.16
3428;BME280;1727;42.624;23.406;2023-09-08T00:11:04;95389.56;;;21.76;76.92
3428;BME280;1727;42.624;23.406;2023-09-08T00:13:32;95390.94;;;21.72;75.04
3428;BME280;1727;42.624;23.406;2023-09-08T00:15:59;95382.81;;;21.80;74.95
3428;BME280;1727;42.624;23.406;2023-09-08T00:18:26;95390.22;;;21.48;74.46
3428;BME280;1727;42.624;23.406;2023-09-08T00:20:54;95385.97;;;21.39;74.28
3428;BME280;1727;42.624;23.406;2023-09-08T00:23:21;95388.53;;;21.32;74.65
3428;BME280;1727;42.624;23.406;2023-09-08T00:25:49;95382.84;;;21.36;73.85
3428;BME280;1727;42.624;23.406;2023-09-08T00:28:16;95388.00;;;21.37;74.46
3428;BME280;1727;42.624;23.406;2023-09-08T00:30:43;95380.44;;;21.11;70.27
3428;BME280;1727;42.624;23.406;2023-09-08T00:33:09;95386.19;;;20.85;70.88
3428;BME280;1727;42.624;23.406;2023-09-08T00:35:39;95382.69;;;20.85;71.58
3428;BME280;1727;42.624;23.406;2023-09-08T00:38:11;95385.63;;;21.04;70.84
3428;BME280;1727;42.624;23.406;2023-09-08T00:40:54;95378.50;;;21.20;72.23
3428;BME280;1727;42.624;23.406;2023-09-08T00:43:34;95386.22;;;21.15;70.79
3428;BME280;1727;42.624;23.406;2023-09-08T00:46:01;95378.00;;;21.01;72.37
3428;BME280;1727;42.624;23.406;2023-09-08T00:48:28;95381.25;;;21.12;74.22
3428;BME280;1727;42.624;23.406;2023-09-08T00:50:56;95380.16;;;21.21;74.42
3428;BME280;1727;42.624;23.406;2023-09-08T00:53:25;95377.41;;;21.29;75.67
3428;BME280;1727;42.624;23.406;2023-09-08T00:55:52;95372.53;;;21.32;75.59
3428;BME280;1727;42.624;23.406;2023-09-08T00:58:19;95369.94;;;21.39;76.20
3428;BME280;1727;42.624;23.406;2023-09-08T01:00:46;95368.13;;;21.25;76.24
3428;BME280;1727;42.624;23.406;2023-09-08T01:03:12;95369.69;;;21.34;76.23
3428;BME280;1727;42.624;23.406;2023-09-08T01:05:39;95375.56;;;21.15;75.79
3428;BME280;1727;42.624;23.406;2023-09-08T01:08:07;95375.25;;;21.10;76.29
3428;BME280;1727;42.624;23.406;2023-09-08T01:10:36;95375.44;;;21.08;76.41
3428;BME280;1727;42.624;23.406;2023-09-08T01:13:04;95379.88;;;21.16;76.77
3428;BME280;1727;42.624;23.406;2023-09-08T01:15:31;95383.09;;;21.11;76.97
3428;BME280;1727;42.624;23.406;2023-09-08T01:17:58;95384.63;;;21.06;77.06
3428;BME280;1727;42.624;23.406;2023-09-08T01:20:27;95378.41;;;21.13;77.35
3428;BME280;1727;42.624;23.406;2023-09-08T01:23:11;95380.16;;;21.21;78.59
3428;BME280;1727;42.624;23.406;2023-09-08T01:25:46;95374.63;;;21.22;77.35
3428;BME280;1727;42.624;23.406;2023-09-08T01:28:17;95379.03;;;21.15;76.20
3428;BME280;1727;42.624;23.406;2023-09-08T01:30:47;95375.75;;;21.28;78.03
3428;BME280;1727;42.624;23.406;2023-09-08T01:33:15;95367.28;;;21.39;76.69
3428;BME280;1727;42.624;23.406;2023-09-08T01:35:43;95371.44;;;21.42;75.61
3428;BME280;1727;42.624;23.406;2023-09-08T01:38:09;95369.78;;;21.41;75.76
3428;BME280;1727;42.624;23.406;2023-09-08T01:40:36;95366.16;;;21.19;76.28
3428;BME280;1727;42.624;23.406;2023-09-08T01:43:05;95371.69;;;21.32;77.31
3428;BME280;1727;42.624;23.406;2023-09-08T01:45:32;95368.59;;;21.43;77.95
3428;BME280;1727;42.624;23.406;2023-09-08T01:47:58;95363.59;;;21.55;77.96
3428;BME280;1727;42.624;23.406;2023-09-08T01:50:25;95370.47;;;21.64;76.58
3428;BME280;1727;42.624;23.406;2023-09-08T01:52:52;95368.56;;;21.58;76.37
3428;BME280;1727;42.624;23.406;2023-09-08T01:55:19;95367.00;;;21.34;76.69
3428;BME280;1727;42.624;23.406;2023-09-08T01:57:46;95370.78;;;21.25;77.85
3428;BME280;1727;42.624;23.406;2023-09-08T02:00:15;95367.59;;;21.07;78.85
3428;BME280;1727;42.624;23.406;2023-09-08T02:02:41;95363.38;;;20.97;79.33
3428;BME280;1727;42.624;23.406;2023-09-08T02:05:08;95365.22;;;20.82;79.30
3428;BME280;1727;42.624;23.406;2023-09-08T02:07:35;95358.03;;;20.83;79.41
3428;BME280;1727;42.624;23.406;2023-09-08T02:10:02;95357.63;;;20.71;80.69
3428;BME280;1727;42.624;23.406;2023-09-08T02:12:29;95357.72;;;20.63;81.30
3428;BME280;1727;42.624;23.406;2023-09-08T02:14:56;95354.41;;;20.61;82.88
3428;BME280;1727;42.624;23.406;2023-09-08T02:17:24;95358.38;;;20.80;83.02
3428;BME280;1727;42.624;23.406;2023-09-08T02:19:51;95355.38;;;20.97;82.36
3428;BME280;1727;42.624;23.406;2023-09-08T02:22:18;95346.16;;;21.00;81.33
3428;BME280;1727;42.624;23.406;2023-09-08T02:24:44;95344.59;;;20.91;80.84
3428;BME280;1727;42.624;23.406;2023-09-08T02:27:11;95330.06;;;20.93;81.60
3428;BME280;1727;42.624;23.406;2023-09-08T02:29:38;95334.56;;;21.08;81.57
3428;BME280;1727;42.624;23.406;2023-09-08T02:32:05;95344.81;;;21.19;82.27
3428;BME280;1727;42.624;23.406;2023-09-08T02:34:35;95333.88;;;21.28;81.00
3428;BME280;1727;42.624;23.406;2023-09-08T02:37:03;95339.22;;;21.28;81.18
3428;BME280;1727;42.624;23.406;2023-09-08T02:39:33;95334.69;;;21.29;81.37
3428;BME280;1727;42.624;23.406;2023-09-08T02:42:00;95330.84;;;21.31;81.22
3428;BME280;1727;42.624;23.406;2023-09-08T02:44:27;95337.09;;;21.24;80.23
3428;BME280;1727;42.624;23.406;2023-09-08T02:46:54;95334.03;;;21.12;81.01
3428;BME280;1727;42.624;23.406;2023-09-08T02:49:21;95331.72;;;21.09;81.59
3428;BME280;1727;42.624;23.406;2023-09-08T02:51:49;95325.91;;;21.06;81.69
3428;BME280;1727;42.624;23.406;2023-09-08T02:54:16;95333.09;;;21.05;81.56
3428;BME280;1727;42.624;23.406;2023-09-08T02:56:43;95330.25;;;21.07;82.32
3428;BME280;1727;42.624;23.406;2023-09-08T02:59:10;95320.03;;;21.10;81.62
3428;BME280;1727;42.624;23.406;2023-09-08T03:01:36;95329.53;;;21.13;82.09
3428;BME280;1727;42.624;23.406;2023-09-08T03:04:03;95325.22;;;21.12;81.40
3428;BME280;1727;42.624;23.406;2023-09-08T03:06:30;95319.94;;;21.03;81.45
3428;BME280;1727;42.624;23.406;2023-09-08T03:08:59;95324.19;;;20.98;81.24
3428;BME280;1727;42.624;23.406;2023-09-08T03:11:26;95323.69;;;20.80;82.07
3428;BME280;1727;42.624;23.406;2023-09-08T03:13:53;95324.78;;;20.56;82.94
3428;BME280;1727;42.624;23.406;2023-09-08T03:16:20;95320.22;;;20.41;83.97
3428;BME280;1727;42.624;23.406;2023-09-08T03:18:47;95325.41;;;20.35;84.62
3428;BME280;1727;42.624;23.406;2023-09-08T03:21:14;95318.16;;;20.29;84.98
3428;BME280;1727;42.624;23.406;2023-09-08T03:23:42;95324.16;;;20.23;85.45
3428;BME280;1727;42.624;23.406;2023-09-08T03:26:11;95327.56;;;20.17;85.39
3428;BME280;1727;42.624;23.406;2023-09-08T03:28:38;95325.78;;;20.09;85.96
3428;BME280;1727;42.624;23.406;2023-09-08T03:31:05;95319.69;;;20.00;86.23
3428;BME280;1727;42.624;23.406;2023-09-08T03:33:32;95330.06;;;19.95;86.79
3428;BME280;1727;42.624;23.406;2023-09-08T03:35:59;95328.56;;;19.93;86.78
3428;BME280;1727;42.624;23.406;2023-09-08T03:38:26;95330.91;;;19.88;86.80
3428;BME280;1727;42.624;23.406;2023-09-08T03:40:53;95330.63;;;19.83;86.72
3428;BME280;1727;42.624;23.406;2023-09-08T03:43:21;95323.88;;;19.72;87.66
3428;BME280;1727;42.624;23.406;2023-09-08T03:45:48;95335.72;;;19.69;87.84
3428;BME280;1727;42.624;23.406;2023-09-08T03:48:14;95328.06;;;19.66;88.44
3428;BME280;1727;42.624;23.406;2023-09-08T03:50:41;95325.72;;;19.63;88.41
3428;BME280;1727;42.624;23.406;2023-09-08T03:53:10;95322.78;;;19.58;88.36
3428;BME280;1727;42.624;23.406;2023-09-08T03:55:37;95327.78;;;19.53;88.75
3428;BME280;1727;42.624;23.406;2023-09-08T03:58:04;95325.97;;;19.45;89.01
3428;BME280;1727;42.624;23.406;2023-09-08T04:00:32;95333.00;;;19.38;89.34
3428;BME280;1727;42.624;23.406;2023-09-08T04:02:59;95329.19;;;19.33;89.79
3428;BME280;1727;42.624;23.406;2023-09-08T04:05:25;95329.81;;;19.43;93.84
3428;BME280;1727;42.624;23.406;2023-09-08T04:07:53;95324.19;;;19.77;91.54
3428;BME280;1727;42.624;23.406;2023-09-08T04:10:20;95325.34;;;20.20;88.88
3428;BME280;1727;42.624;23.406;2023-09-08T04:12:46;95321.94;;;20.34;85.82
3428;BME280;1727;42.624;23.406;2023-09-08T04:15:13;95327.34;;;20.26;84.90
3428;BME280;1727;42.624;23.406;2023-09-08T04:17:41;95330.03;;;20.18;85.41
3428;BME280;1727;42.624;23.406;2023-09-08T04:20:08;95323.47;;;20.06;85.58
3428;BME280;1727;42.624;23.406;2023-09-08T04:22:35;95324.41;;;19.90;86.13
3428;BME280;1727;42.624;23.406;2023-09-08T04:25:03;95328.06;;;19.89;86.53
3428;BME280;1727;42.624;23.406;2023-09-08T04:27:31;95325.22;;;19.91;86.54
3428;BME280;1727;42.624;23.406;2023-09-08T04:29:58;95330.56;;;19.91;86.28
3428;BME280;1727;42.624;23.406;2023-09-08T04:32:25;95334.75;;;19.85;86.33
3428;BME280;1727;42.624;23.406;2023-09-08T04:34:53;95339.63;;;19.82;86.77
3428;BME280;1727;42.624;23.406;2023-09-08T04:37:20;95336.44;;;19.86;86.80
3428;BME280;1727;42.624;23.406;2023-09-08T04:39:46;95339.00;;;20.02;86.27
3428;BME280;1727;42.624;23.406;2023-09-08T04:42:13;95343.38;;;20.18;85.50
3428;BME280;1727;42.624;23.406;2023-09-08T04:44:40;95346.94;;;20.33;85.02
3428;BME280;1727;42.624;23.406;2023-09-08T04:47:07;95345.50;;;20.46;84.14
3428;BME280;1727;42.624;23.406;2023-09-08T04:49:33;95343.38;;;20.64;83.05
3428;BME280;1727;42.624;23.406;2023-09-08T04:52:02;95346.88;;;20.79;82.31
3428;BME280;1727;42.624;23.406;2023-09-08T04:54:29;95350.94;;;20.90;81.98
3428;BME280;1727;42.624;23.406;2023-09-08T04:56:57;95349.38;;;20.95;81.82
3428;BME280;1727;42.624;23.406;2023-09-08T04:59:24;95350.69;;;21.14;81.74
3428;BME280;1727;42.624;23.406;2023-09-08T05:01:51;95354.59;;;21.41;80.42
3428;BME280;1727;42.624;23.406;2023-09-08T05:04:18;95346.88;;;21.68;78.86
3428;BME280;1727;42.624;23.406;2023-09-08T05:06:44;95357.25;;;21.92;77.84
3428;BME280;1727;42.624;23.406;2023-09-08T05:09:13;95357.00;;;22.23;76.08
3428;BME280;1727;42.624;23.406;2023-09-08T05:11:40;95346.75;;;22.48;75.09
3428;BME280;1727;42.624;23.406;2023-09-08T05:14:07;95352.41;;;22.81;73.92
3428;BME280;1727;42.624;23.406;2023-09-08T05:16:33;95356.72;;;23.10;72.27
3428;BME280;1727;42.624;23.406;2023-09-08T05:19:05;95356.91;;;23.36;71.14
3428;BME280;1727;42.624;23.406;2023-09-08T05:21:34;95359.75;;;23.63;70.04
3428;BME280;1727;42.624;23.406;2023-09-08T05:24:02;95356.13;;;23.84;69.11
3428;BME280;1727;42.624;23.406;2023-09-08T05:26:31;95354.56;;;24.09;68.79
3428;BME280;1727;42.624;23.406;2023-09-08T05:29:00;95349.91;;;24.31;67.33
3428;BME280;1727;42.624;23.406;2023-09-08T05:31:29;95353.22;;;24.53;67.60
3428;BME280;1727;42.624;23.406;2023-09-08T05:33:56;95355.31;;;24.77;66.42
3428;BME280;1727;42.624;23.406;2023-09-08T05:36:23;95353.69;;;25.02;65.61
3428;BME280;1727;42.624;23.406;2023-09-08T05:38:49;95357.78;;;25.25;64.60
3428;BME280;1727;42.624;23.406;2023-09-08T05:41:16;95358.38;;;25.47;63.51
3428;BME280;1727;42.624;23.406;2023-09-08T05:43:44;95362.25;;;25.71;62.58
3428;BME280;1727;42.624;23.406;2023-09-08T05:46:12;95364.00;;;25.97;62.02
3428;BME280;1727;42.624;23.406;2023-09-08T05:48:39;95365.53;;;26.24;60.99
3428;BME280;1727;42.624;23.406;2023-09-08T05:51:06;95361.81;;;26.57;59.41
3428;BME280;1727;42.624;23.406;2023-09-08T05:53:33;95365.81;;;26.79;58.39
3428;BME280;1727;42.624;23.406;2023-09-08T05:56:01;95362.00;;;26.93;58.24
3428;BME280;1727;42.624;23.406;2023-09-08T05:58:27;95367.72;;;27.03;57.49
3428;BME280;1727;42.624;23.406;2023-09-08T06:00:56;95367.81;;;27.15;57.47
3428;BME280;1727;42.624;23.406;2023-09-08T06:03:23;95370.31;;;26.85;51.58
3428;BME280;1727;42.624;23.406;2023-09-08T06:05:49;95363.09;;;26.16;52.91
3428;BME280;1727;42.624;23.406;2023-09-08T06:08:16;95373.69;;;25.33;53.09
3428;BME280;1727;42.624;23.406;2023-09-08T06:10:43;95365.63;;;24.54;56.12
3428;BME280;1727;42.624;23.406;2023-09-08T06:13:10;95368.81;;;24.23;57.74
3428;BME280;1727;42.624;23.406;2023-09-08T06:15:37;95366.06;;;24.70;55.45
3428;BME280;1727;42.624;23.406;2023-09-08T06:18:05;95363.38;;;24.64;57.14
3428;BME280;1727;42.624;23.406;2023-09-08T06:20:32;95355.28;;;24.57;57.37
3428;BME280;1727;42.624;23.406;2023-09-08T06:22:59;95361.47;;;24.38;56.95
3428;BME280;1727;42.624;23.406;2023-09-08T06:25:26;95364.59;;;24.81;55.90
3428;BME280;1727;42.624;23.406;2023-09-08T06:27:54;95369.38;;;25.06;55.43
3428;BME280;1727;42.624;23.406;2023-09-08T06:30:21;95361.91;;;25.14;54.77
3428;BME280;1727;42.624;23.406;2023-09-08T06:32:48;95371.03;;;25.20;54.59
3428;BME280;1727;42.624;23.406;2023-09-08T06:35:16;95372.25;;;24.91;53.75
3428;BME280;1727;42.624;23.406;2023-09-08T06:37:43;95377.03;;;25.02;54.49
3428;BME280;1727;42.624;23.406;2023-09-08T06:40:10;95385.44;;;24.86;54.57
3428;BME280;1727;42.624;23.406;2023-09-08T06:42:36;95378.03;;;24.88;55.62
3428;BME280;1727;42.624;23.406;2023-09-08T06:45:06;95372.38;;;25.62;57.96
3428;BME280;1727;42.624;23.406;2023-09-08T06:47:33;95379.97;;;25.91;52.75
3428;BME280;1727;42.624;23.406;2023-09-08T06:50:00;95381.84;;;25.84;53.20
3428;BME280;1727;42.624;23.406;2023-09-08T06:52:28;95389.16;;;25.44;51.75
3428;BME280;1727;42.624;23.406;2023-09-08T06:54:55;95380.53;;;25.02;54.45
3428;BME280;1727;42.624;23.406;2023-09-08T06:57:22;95378.25;;;24.93;54.58
3428;BME280;1727;42.624;23.406;2023-09-08T06:59:48;95380.69;;;25.47;54.94
3428;BME280;1727;42.624;23.406;2023-09-08T07:02:15;95383.38;;;25.54;53.13
3428;BME280;1727;42.624;23.406;2023-09-08T07:04:42;95380.47;;;25.55;53.18
3428;BME280;1727;42.624;23.406;2023-09-08T07:07:09;95381.28;;;25.56;54.16
3428;BME280;1727;42.624;23.406;2023-09-08T07:09:37;95378.13;;;25.85;53.27
3428;BME280;1727;42.624;23.406;2023-09-08T07:12:05;95372.75;;;25.85;51.92
3428;BME280;1727;42.624;23.406;2023-09-08T07:14:32;95378.97;;;26.24;53.73
3428;BME280;1727;42.624;23.406;2023-09-08T07:16:59;95383.75;;;26.22;52.34
3428;BME280;1727;42.624;23.406;2023-09-08T07:19:26;95384.47;;;25.98;50.54
3428;BME280;1727;42.624;23.406;2023-09-08T07:21:53;95383.47;;;25.92;52.88
3428;BME280;1727;42.624;23.406;2023-09-08T07:24:20;95373.50;;;25.99;53.79
3428;BME280;1727;42.624;23.406;2023-09-08T07:26:48;95369.63;;;26.33;51.55
3428;BME280;1727;42.624;23.406;2023-09-08T07:29:16;95372.75;;;26.37;50.92
3428;BME280;1727;42.624;23.406;2023-09-08T07:31:43;95374.72;;;26.48;51.20
3428;BME280;1727;42.624;23.406;2023-09-08T07:34:09;95369.06;;;26.63;48.47
3428;BME280;1727;42.624;23.406;2023-09-08T07:36:36;95369.78;;;26.45;48.92
3428;BME280;1727;42.624;23.406;2023-09-08T07:39:03;95371.88;;;25.91;50.07
3428;BME280;1727;42.624;23.406;2023-09-08T07:41:30;95361.88;;;25.47;51.83
3428;BME280;1727;42.624;23.406;2023-09-08T07:43:58;95368.47;;;25.58;53.14
3428;BME280;1727;42.624;23.406;2023-09-08T07:46:25;95368.97;;;25.93;54.03
3428;BME280;1727;42.624;23.406;2023-09-08T07:48:52;95361.31;;;26.03;51.96
3428;BME280;1727;42.624;23.406;2023-09-08T07:51:19;95359.31;;;26.23;51.65
3428;BME280;1727;42.624;23.406;2023-09-08T07:53:46;95358.38;;;26.49;51.30
3428;BME280;1727;42.624;23.406;2023-09-08T07:56:13;95362.81;;;26.37;49.10
3428;BME280;1727;42.624;23.406;2023-09-08T07:58:40;95359.28;;;26.30;48.56
3428;BME280;1727;42.624;23.406;2023-09-08T08:01:08;95368.69;;;26.14;48.73
3428;BME280;1727;42.624;23.406;2023-09-08T08:03:34;95368.03;;;25.68;49.04
3428;BME280;1727;42.624;23.406;2023-09-08T08:06:01;95373.25;;;25.43;51.14
3428;BME280;1727;42.624;23.406;2023-09-08T08:08:28;95363.69;;;25.60;50.29
3428;BME280;1727;42.624;23.406;2023-09-08T08:10:55;95358.50;;;25.78;50.07
3428;BME280;1727;42.624;23.406;2023-09-08T08:13:22;95363.16;;;26.03;50.18
3428;BME280;1727;42.624;23.406;2023-09-08T08:15:49;95365.59;;;25.53;49.76
3428;BME280;1727;42.624;23.406;2023-09-08T08:18:17;95352.63;;;25.30;51.16
3428;BME280;1727;42.624;23.406;2023-09-08T08:20:44;95359.75;;;25.76;50.54
3428;BME280;1727;42.624;23.406;2023-09-08T08:23:11;95363.22;;;25.89;49.23
3428;BME280;1727;42.624;23.406;2023-09-08T08:25:38;95353.81;;;26.12;49.36
3428;BME280;1727;42.624;23.406;2023-09-08T08:28:05;95342.25;;;26.43;47.38
3428;BME280;1727;42.624;23.406;2023-09-08T08:30:32;95345.50;;;26.13;47.40
3428;BME280;1727;42.624;23.406;2023-09-08T08:32:59;95350.88;;;25.75;46.85
3428;BME280;1727;42.624;23.406;2023-09-08T08:35:27;95359.09;;;26.25;47.95
3428;BME280;1727;42.624;23.406;2023-09-08T08:37:54;95342.47;;;25.39;47.66
3428;BME280;1727;42.624;23.406;2023-09-08T08:40:21;95348.88;;;25.38;50.38
3428;BME280;1727;42.624;23.406;2023-09-08T08:42:54;95346.84;;;25.91;48.03
3428;BME280;1727;42.624;23.406;2023-09-08T08:45:23;95345.44;;;26.27;46.49
3428;BME280;1727;42.624;23.406;2023-09-08T08:47:50;95346.03;;;26.29;46.13
3428;BME280;1727;42.624;23.406;2023-09-08T08:50:18;95343.44;;;26.15;47.39
3428;BME280;1727;42.624;23.406;2023-09-08T08:52:46;95332.22;;;26.57;46.75
3428;BME280;1727;42.624;23.406;2023-09-08T08:55:13;95334.81;;;26.70;46.02
3428;BME280;1727;42.624;23.406;2023-09-08T08:57:41;95340.69;;;26.85;45.33
3428;BME280;1727;42.624;23.406;2023-09-08T09:00:10;95333.84;;;26.89;44.66
3428;BME280;1727;42.624;23.406;2023-09-08T09:02:39;95339.88;;;26.84;45.37
3428;BME280;1727;42.624;23.406;2023-09-08T09:05:07;95336.31;;;26.91;45.45
3428;BME280;1727;42.624;23.406;2023-09-08T09:07:35;95344.72;;;26.76;45.88
3428;BME280;1727;42.624;23.406;2023-09-08T09:10:05;95329.09;;;26.84;46.89
3428;BME280;1727;42.624;23.406;2023-09-08T09:12:33;95337.41;;;26.83;45.56
3428;BME280;1727;42.624;23.406;2023-09-08T09:15:03;95325.97;;;26.88;46.95
3428;BME280;1727;42.624;23.406;2023-09-08T09:17:32;95325.47;;;26.72;46.47
3428;BME280;1727;42.624;23.406;2023-09-08T09:20:15;95325.13;;;26.87;44.69
3428;BME280;1727;42.624;23.406;2023-09-08T09:22:43;95324.94;;;27.13;45.45
3428;BME280;1727;42.624;23.406;2023-09-08T09:25:21;95318.91;;;27.18;45.50
3428;BME280;1727;42.624;23.406;2023-09-08T09:27:50;95324.19;;;27.06;45.39
3428;BME280;1727;42.624;23.406;2023-09-08T09:30:17;95332.56;;;27.16;43.12
3428;BME280;1727;42.624;23.406;2023-09-08T09:32:44;95319.03;;;26.48;45.84
3428;BME280;1727;42.624;23.406;2023-09-08T09:35:11;95315.53;;;26.48;46.01
3428;BME280;1727;42.624;23.406;2023-09-08T09:37:40;95323.94;;;26.83;44.46
3428;BME280;1727;42.624;23.406;2023-09-08T09:40:08;95327.72;;;26.50;44.59
3428;BME280;1727;42.624;23.406;2023-09-08T09:42:39;95315.13;;;26.44;45.13
3428;BME280;1727;42.624;23.406;2023-09-08T09:45:07;95328.22;;;26.66;45.89
3428;BME280;1727;42.624;23.406;2023-09-08T09:47:35;95323.84;;;26.02;46.24
3428;BME280;1727;42.624;23.406;2023-09-08T09:50:03;95324.47;;;26.04;46.39
3428;BME280;1727;42.624;23.406;2023-09-08T09:52:30;95306.31;;;25.92;44.65
3428;BME280;1727;42.624;23.406;2023-09-08T09:54:58;95315.50;;;25.65;46.20
3428;BME280;1727;42.624;23.406;2023-09-08T09:57:25;95319.47;;;25.56;47.80
3428;BME280;1727;42.624;23.406;2023-09-08T09:59:54;95300.41;;;25.77;46.36
3428;BME280;1727;42.624;23.406;2023-09-08T10:02:23;95306.56;;;25.84;47.49
3428;BME280;1727;42.624;23.406;2023-09-08T10:04:51;95301.94;;;25.98;46.67
3428;BME280;1727;42.624;23.406;2023-09-08T10:07:18;95298.25;;;26.24;45.56
3428;BME280;1727;42.624;23.406;2023-09-08T10:09:46;95287.31;;;26.19;44.65
3428;BME280;1727;42.624;23.406;2023-09-08T10:12:14;95283.88;;;25.67;46.88
3428;BME280;1727;42.624;23.406;2023-09-08T10:14:42;95290.25;;;25.79;47.93
3428;BME280;1727;42.624;23.406;2023-09-08T10:17:15;95280.34;;;25.73;48.30
3428;BME280;1727;42.624;23.406;2023-09-08T10:19:46;95282.72;;;25.37;48.28
3428;BME280;1727;42.624;23.406;2023-09-08T10:22:20;95286.03;;;25.39;49.08
3428;BME280;1727;42.624;23.406;2023-09-08T10:24:49;95283.78;;;25.36;49.43
3428;BME280;1727;42.624;23.406;2023-09-08T10:27:17;95287.91;;;25.31;50.36
3428;BME280;1727;42.624;23.406;2023-09-08T10:29:47;95280.09;;;25.23;49.83
3428;BME280;1727;42.624;23.406;2023-09-08T10:32:16;95288.78;;;25.25;49.57
3428;BME280;1727;42.624;23.406;2023-09-08T10:34:44;95283.63;;;25.17;49.89
3428;BME280;1727;42.624;23.406;2023-09-08T10:37:22;95277.63;;;25.22;49.83
3428;BME280;1727;42.624;23.406;2023-09-08T10:39:50;95281.56;;;25.19;49.85
3428;BME280;1727;42.624;23.406;2023-09-08T10:42:21;95269.75;;;25.27;50.00
3428;BME280;1727;42.624;23.406;2023-09-08T10:44:56;95276.41;;;25.18;51.11
3428;BME280;1727;42.624;23.406;2023-09-08T10:47:26;95280.91;;;25.30;52.08
3428;BME280;1727;42.624;23.406;2023-09-08T10:49:56;95279.25;;;25.29;52.10
3428;BME280;1727;42.624;23.406;2023-09-08T10:52:25;95283.16;;;25.33;52.19
3428;BME280;1727;42.624;23.406;2023-09-08T10:54:53;95283.63;;;25.17;51.12
3428;BME280;1727;42.624;23.406;2023-09-08T10:57:21;95273.94;;;25.03;51.41
3428;BME280;1727;42.624;23.406;2023-09-08T10:59:51;95279.31;;;24.96;51.26
3428;BME280;1727;42.624;23.406;2023-09-08T11:02:36;95281.56;;;25.06;52.50
3428;BME280;1727;42.624;23.406;2023-09-08T11:05:04;95277.63;;;25.15;52.33
3428;BME280;1727;42.624;23.406;2023-09-08T11:07:35;95266.91;;;25.09;52.49
3428;BME280;1727;42.624;23.406;2023-09-08T11:10:03;95271.44;;;25.21;54.59
3428;BME280;1727;42.624;23.406;2023-09-08T11:12:30;95266.50;;;25.05;53.54
3428;BME280;1727;42.624;23.406;2023-09-08T11:14:57;95267.34;;;24.79;54.52
3428;BME280;1727;42.624;23.406;2023-09-08T11:17:26;95272.91;;;24.78;54.50
3428;BME280;1727;42.624;23.406;2023-09-08T11:19:55;95263.22;;;24.77;54.54
3428;BME280;1727;42.624;23.406;2023-09-08T11:22:23;95266.31;;;24.80;54.83
3428;BME280;1727;42.624;23.406;2023-09-08T11:24:51;95266.94;;;24.69;54.46
3428;BME280;1727;42.624;23.406;2023-09-08T11:27:18;95262.84;;;24.60;54.70
3428;BME280;1727;42.624;23.406;2023-09-08T11:29:46;95256.00;;;24.57;54.72
3428;BME280;1727;42.624;23.406;2023-09-08T11:32:13;95259.50;;;24.71;55.10
3428;BME280;1727;42.624;23.406;2023-09-08T11:34:39;95268.78;;;24.75;54.74
3428;BME280;1727;42.624;23.406;2023-09-08T11:37:09;95257.84;;;24.77;54.81
3428;BME280;1727;42.624;23.406;2023-09-08T11:39:38;95250.22;;;24.74;55.85
3428;BME280;1727;42.624;23.406;2023-09-08T11:42:05;95253.13;;;24.65;56.60
3428;BME280;1727;42.624;23.406;2023-09-08T11:44:34;95243.00;;;24.54;55.64
3428;BME280;1727;42.624;23.406;2023-09-08T11:47:02;95236.59;;;24.75;56.35
3428;BME280;1727;42.624;23.406;2023-09-08T11:49:34;95243.00;;;24.67;55.66
3428;BME280;1727;42.624;23.406;2023-09-08T11:52:01;95235.75;;;24.75;55.78
3428;BME280;1727;42.624;23.406;2023-09-08T11:54:31;95236.13;;;24.85;54.80
3428;BME280;1727;42.624;23.406;2023-09-08T11:56:59;95241.31;;;24.99;54.11
3428;BME280;1727;42.624;23.406;2023-09-08T11:59:26;95235.50;;;25.09;54.17
3428;BME280;1727;42.624;23.406;2023-09-08T12:01:55;95241.94;;;25.01;53.91
3428;BME280;1727;42.624;23.406;2023-09-08T12:04:22;95235.53;;;24.83;54.06
3428;BME280;1727;42.624;23.406;2023-09-08T12:06:49;95240.94;;;24.69;54.13
3428;BME280;1727;42.624;23.406;2023-09-08T12:09:17;95233.88;;;24.82;55.45
3428;BME280;1727;42.624;23.406;2023-09-08T12:11:46;95222.75;;;24.71;55.25
3428;BME280;1727;42.624;23.406;2023-09-08T12:14:14;95226.22;;;24.85;54.88
3428;BME280;1727;42.624;23.406;2023-09-08T12:16:41;95218.59;;;25.02;55.20
3428;BME280;1727;42.624;23.406;2023-09-08T12:19:28;95215.19;;;25.26;53.28
3428;BME280;1727;42.624;23.406;2023-09-08T12:21:56;95210.56;;;25.47;53.52
3428;BME280;1727;42.624;23.406;2023-09-08T12:24:47;95215.38;;;25.31;51.16
3428;BME280;1727;42.624;23.406;2023-09-08T12:27:16;95209.22;;;25.24;52.05
3428;BME280;1727;42.624;23.406;2023-09-08T12:29:52;95197.78;;;25.36;52.96
3428;BME280;1727;42.624;23.406;2023-09-08T12:32:19;95210.22;;;25.30;52.36
3428;BME280;1727;42.624;23.406;2023-09-08T12:34:46;95203.94;;;25.43;53.19
3428;BME280;1727;42.624;23.406;2023-09-08T12:37:13;95207.28;;;25.38;51.20
3428;BME280;1727;42.624;23.406;2023-09-08T12:39:40;95191.75;;;25.47;50.93
3428;BME280;1727;42.624;23.406;2023-09-08T12:42:07;95189.41;;;25.57;49.89
3428;BME280;1727;42.624;23.406;2023-09-08T12:44:35;95189.38;;;25.63;48.87
3428;BME280;1727;42.624;23.406;2023-09-08T12:47:02;95187.50;;;25.64;49.22
3428;BME280;1727;42.624;23.406;2023-09-08T12:49:29;95185.44;;;25.66;49.13
3428;BME280;1727;42.624;23.406;2023-09-08T12:51:55;95189.84;;;25.54;49.01
3428;BME280;1727;42.624;23.406;2023-09-08T12:54:22;95192.97;;;25.51;49.78
3428;BME280;1727;42.624;23.406;2023-09-08T12:56:49;95197.03;;;25.22;51.03
3428;BME280;1727;42.624;23.406;2023-09-08T12:59:16;95198.13;;;25.08;51.34
3428;BME280;1727;42.624;23.406;2023-09-08T13:01:44;95194.22;;;24.84;51.65
3428;BME280;1727;42.624;23.406;2023-09-08T13:04:11;95189.47;;;24.92;51.07
3428;BME280;1727;42.624;23.406;2023-09-08T13:06:38;95197.72;;;24.84;51.28
3428;BME280;1727;42.624;23.406;2023-09-08T13:09:04;95184.31;;;24.91;52.35
3428;BME280;1727;42.624;23.406;2023-09-08T13:11:32;95196.53;;;24.87;51.31
3428;BME280;1727;42.624;23.406;2023-09-08T13:13:59;95198.59;;;24.71;52.33